Latest Weather Observations for Dum In Mirrie

IDD60801

Issued at 11:21 pm CST Tuesday 22 September 2020 (issued every 10 minutes, with the page automatically refreshed every 10 minutes)

About weather observations | Map of weather stations | Latest weather observations for NT | Other Formats
Station Details ID: 014277 Name: DUM IN MIRRIE AIRSTRIP Lat: -12.63 Lon: 130.37 Height: 3.5 m
Data from the previous 72 hours. | See also: Recent months at Dum In Mirrie
Date/Time
CST
Temp
°C
App
Temp
°C
Dew
Point
°C
Rel
Hum
%
Delta-T
°C
Wind Press
QNH
hPa
Press
MSL
hPa
Rain since
9am
mm
Dir  Spd
km/h
Gust
km/h
Spd
kts
Gust
kts
22/11:00pm 26.3 31.7 24.5 90 1.2 SE 4 6 2 3 1012.1 1012.1 0.0
22/10:30pm 26.1 31.9 24.0 88 1.4 CALM 0 2 0 1 1011.6 1011.6 0.0
22/10:00pm 27.4 33.7 24.7 85 1.9 CALM 0 0 0 0 1011.8 1011.8 0.0
22/09:30pm 27.1 33.1 24.2 84 2.0 CALM 0 0 0 0 1011.5 1011.5 0.0
22/09:00pm 27.5 33.0 24.1 82 2.3 SE 2 4 1 2 1011.0 1011.0 0.0
22/08:30pm 28.2 33.3 24.0 78 2.9 S 4 7 2 4 1011.4 1011.4 0.0
22/08:00pm 27.6 32.1 22.3 73 3.6 SE 2 6 1 3 1011.0 1011.0 0.0
22/07:30pm 27.8 32.3 21.6 69 4.1 CALM 0 0 0 0 1010.3 1010.3 0.0
22/07:00pm 29.2 33.4 21.7 64 5.0 NE 2 7 1 4 1009.6 1009.6 0.0
22/06:30pm 29.8 32.6 21.5 61 5.6 NNE 9 19 5 10 1009.2 1009.2 0.0
22/06:00pm 30.3 32.9 21.9 60 5.7 N 11 19 6 10 1009.2 1009.2 0.0
22/05:30pm 30.8 33.9 22.9 62 5.4 N 11 26 6 14 1008.9 1008.9 0.0
22/05:00pm 31.2 35.0 24.1 66 4.9 N 11 20 6 11 1008.7 1008.7 0.0
22/04:30pm 31.0 34.4 24.1 66 4.8 N 13 20 7 11 1008.6 1008.6 0.0
22/04:00pm 31.6 34.9 24.5 66 5.0 N 15 28 8 15 1008.7 1008.7 0.0
22/03:30pm 31.6 34.5 24.5 66 5.0 N 17 26 9 14 1008.8 1008.8 0.0
22/03:00pm 31.9 35.0 24.2 63 5.4 N 15 24 8 13 1009.0 1009.0 0.0
22/02:30pm 32.8 36.0 23.7 58 6.3 N 13 26 7 14 1009.1 1009.1 0.0
22/02:00pm 33.1 36.7 24.3 60 6.2 N 13 24 7 13 1009.4 1009.4 0.0
22/01:30pm 32.8 36.0 24.3 61 6.0 N 15 24 8 13 1009.9 1009.9 0.0
22/01:00pm 31.9 35.3 24.0 63 5.5 N 13 20 7 11 1010.8 1010.8 0.0
22/12:30pm 31.7 35.1 24.0 63 5.4 NNW 13 22 7 12 1011.3 1011.3 0.0
22/12:00pm 30.8 34.6 24.0 67 4.7 NNW 11 19 6 10 1012.0 1012.0 0.0
22/11:30am 30.5 33.8 23.9 68 4.6 NNW 13 20 7 11 1012.4 1012.4 0.0
22/11:00am 31.9 36.0 23.2 60 6.0 NE 7 13 4 7 1012.8 1012.8 0.0
22/10:30am 31.1 35.2 23.2 63 5.4 ESE 7 13 4 7 1013.4 1013.4 0.0
22/10:00am 31.7 35.3 23.8 63 5.5 NE 11 19 6 10 1013.4 1013.4 0.0
22/09:30am 30.7 34.4 23.9 67 4.7 NE 11 19 6 10 1013.0 1013.0 0.0
22/09:00am 30.0 33.3 23.2 67 4.7 ENE 11 17 6 9 1012.9 1012.9 0.2
22/08:30am 28.6 32.6 23.7 75 3.4 ENE 9 15 5 8 1012.5 1012.5 0.2
22/08:00am 27.6 32.5 24.4 83 2.2 NE 6 11 3 6 1012.3 1012.3 0.2
22/07:30am 26.6 32.1 24.6 89 1.4 ENE 4 6 2 3 1012.1 1012.1 0.2
22/07:00am 25.2 30.4 24.2 94 0.7 NE 4 6 2 3 1011.5 1011.5 0.2
22/06:30am 24.4 30.3 24.1 98 0.2 CALM 0 0 0 0 1011.0 1011.0 0.2
22/06:00am 24.3 29.8 23.4 95 0.6 CALM 0 0 0 0 1010.6 1010.6 0.2
22/05:30am 24.6 30.0 23.2 92 0.9 CALM 0 0 0 0 1010.5 1010.5 0.2
22/05:00am 25.5 31.2 23.7 90 1.2 CALM 0 0 0 0 1010.1 1010.1 0.2
22/04:30am 26.0 31.3 23.7 87 1.6 NNW 2 4 1 2 1009.8 1009.8 0.2
22/04:00am 26.4 31.4 23.9 86 1.7 N 4 6 2 3 1009.7 1009.7 0.2
22/03:30am 26.6 31.6 23.9 85 1.9 N 4 6 2 3 1009.8 1009.8 0.2
22/03:00am 26.9 32.5 24.2 85 1.9 NNW 2 7 1 4 1009.7 1009.7 0.2
22/02:30am 27.2 33.0 24.5 85 1.9 NNW 2 7 1 4 1009.8 1009.8 0.2
22/02:00am 27.3 32.8 24.7 86 1.8 NNW 4 7 2 4 1010.0 1010.0 0.2
22/01:30am 27.1 32.6 24.6 86 1.7 NNW 4 9 2 5 1009.9 1009.9 0.2
22/01:00am 27.1 32.2 24.6 86 1.7 NNW 6 9 3 5 1010.1 1010.1 0.2
22/12:30am 27.3 32.4 24.6 85 1.9 NNW 6 9 3 5 1010.2 1010.2 0.2
22/12:00am 27.6 32.4 24.4 83 2.2 NNW 7 13 4 7 1010.3 1010.3 0.2
 
Date/Time
CST
Temp
°C
App
Temp
°C
Dew
Point
°C
Rel
Hum
%
Delta-T
°C
Wind Press
QNH
hPa
Press
MSL
hPa
Rain since
9am
mm
Dir  Spd
km/h
Gust
km/h
Spd
kts
Gust
kts
21/11:30pm 27.9 33.2 24.9 84 2.1 NW 6 11 3 6 1010.3 1010.3 0.2
21/11:00pm 27.7 32.7 24.5 83 2.2 NW 6 9 3 5 1010.3 1010.3 0.2
21/10:30pm 27.8 32.7 24.4 82 2.4 WNW 6 13 3 7 1010.2 1010.2 0.2
21/10:00pm 27.8 32.9 24.6 83 2.2 WNW 6 9 3 5 1010.2 1010.2 0.2
21/09:30pm 27.6 32.8 24.2 82 2.4 WNW 4 9 2 5 1009.9 1009.9 0.2
21/09:00pm 27.7 33.1 24.5 83 2.2 W 4 7 2 4 1009.6 1009.6 0.2
21/08:30pm 27.6 33.1 24.6 84 2.1 WNW 4 7 2 4 1009.4 1009.4 0.2
21/08:00pm 27.8 33.4 24.2 81 2.5 WNW 2 6 1 3 1009.2 1009.2 0.2
21/07:30pm 28.1 33.2 24.1 79 2.8 WNW 4 9 2 5 1009.0 1009.0 0.2
21/07:00pm 28.3 33.6 24.3 79 2.8 NW 4 7 2 4 1008.7 1008.7 0.2
21/06:30pm 28.7 33.8 24.0 76 3.3 NW 4 9 2 5 1008.5 1008.5 0.2
21/06:00pm 29.4 33.9 24.0 72 3.7 NNW 7 13 4 7 1008.3 1008.3 0.2
21/05:30pm 30.2 34.8 24.1 70 4.2 NNW 7 15 4 8 1008.1 1008.1 0.2
21/05:00pm 30.4 34.6 24.1 69 4.4 NNW 9 17 5 9 1008.0 1008.0 0.2
21/04:30pm 31.0 35.3 24.9 70 4.3 NNW 11 17 6 9 1008.0 1008.0 0.2
21/04:00pm 31.7 36.3 24.8 67 4.9 NNW 9 20 5 11 1008.0 1008.0 0.2
21/03:30pm 31.8 36.2 24.4 65 5.2 NW 9 19 5 10 1008.3 1008.3 0.2
21/03:00pm 31.3 35.2 24.2 66 5.0 NNW 11 19 6 10 1008.4 1008.4 0.2
21/02:30pm 31.8 36.0 24.1 63 5.4 NW 9 17 5 9 1009.0 1009.0 0.2
21/02:00pm 31.4 35.4 23.8 64 5.3 NW 9 19 5 10 1009.4 1009.4 0.2
21/01:30pm 31.6 35.2 23.7 63 5.5 NNW 11 20 6 11 1010.0 1010.0 0.2
21/01:00pm 31.5 35.6 23.9 64 5.3 NNW 9 19 5 10 1010.7 1010.7 0.2
21/12:30pm 31.6 35.9 24.2 65 5.2 NNW 9 20 5 11 1011.2 1011.2 0.2
21/12:00pm 31.3 35.0 23.9 64 5.1 N 11 19 6 10 1011.8 1011.8 0.2
21/11:30am 31.7 35.8 24.0 63 5.4 NNW 9 17 5 9 1012.1 1012.1 0.2
21/11:00am 31.1 34.9 23.5 64 5.3 N 9 17 5 9 1012.4 1012.4 0.2
21/10:30am 30.5 35.0 24.6 70 4.1 N 9 13 5 7 1012.6 1012.6 0.2
21/10:00am 30.9 35.3 24.5 68 4.5 N 9 15 5 8 1012.8 1012.8 0.2
21/09:30am 30.1 34.7 24.7 73 3.8 N 9 15 5 8 1012.8 1012.8 0.0
21/09:00am 28.7 33.6 24.3 77 3.1 N 6 9 3 5 1012.5 1012.5 2.0
21/08:30am 28.7 34.3 24.9 80 2.7 N 4 7 2 4 1012.3 1012.3 2.0
21/08:00am 29.0 34.4 25.2 80 2.7 N 6 7 3 4 1011.9 1011.9 2.0
21/07:30am 27.2 34.2 25.8 92 1.0 CALM 0 0 0 0 1011.7 1011.7 2.0
21/07:00am 26.3 33.1 25.6 96 0.5 CALM 0 0 0 0 1011.5 1011.5 2.0
21/06:30am 26.5 33.3 25.5 94 0.7 CALM 0 0 0 0 1011.2 1011.2 2.0
21/06:00am 26.6 32.2 24.8 90 1.3 N 4 4 2 2 1010.8 1010.8 2.0
21/05:30am 26.8 32.5 25.0 90 1.3 N 4 6 2 3 1010.7 1010.7 2.0
21/05:00am 26.5 32.8 25.3 93 0.8 N 2 6 1 3 1010.2 1010.2 2.0
21/04:30am 26.1 32.7 25.2 95 0.6 CALM 0 4 0 2 1010.1 1010.1 2.0
21/04:00am 26.2 31.9 24.4 90 1.2 N 2 4 1 2 1009.9 1009.9 2.0
21/03:30am 26.4 32.2 24.6 90 1.2 N 2 6 1 3 1009.8 1009.8 2.0
21/03:00am 26.6 32.2 24.8 90 1.3 NNW 4 9 2 5 1009.9 1009.9 2.0
21/02:30am 26.6 31.7 24.6 89 1.4 N 6 11 3 6 1009.9 1009.9 2.0
21/02:00am 26.9 32.0 24.7 88 1.5 NNW 6 13 3 7 1010.2 1010.2 2.0
21/01:30am 26.9 32.2 24.9 89 1.4 N 6 11 3 6 1010.5 1010.5 2.0
21/01:00am 27.1 32.3 25.1 89 1.4 NNW 7 13 4 7 1010.5 1010.5 2.0
21/12:30am 27.1 32.3 25.1 89 1.4 NNW 7 13 4 7 1010.9 1010.9 2.0
21/12:00am 27.2 31.9 25.0 88 1.5 NNW 9 17 5 9 1011.1 1011.1 2.0
 
Date/Time
CST
Temp
°C
App
Temp
°C
Dew
Point
°C
Rel
Hum
%
Delta-T
°C
Wind Press
QNH
hPa
Press
MSL
hPa
Rain since
9am
mm
Dir  Spd
km/h
Gust
km/h
Spd
kts
Gust
kts
20/11:30pm 26.7 32.8 26.2 97 0.4 NW 6 11 3 6 1011.1 1011.1 2.0
20/11:00pm 25.9 32.1 25.2 96 0.5 NW 2 7 1 4 1011.2 1011.2 2.0
20/10:30pm 25.5 31.2 25.0 97 0.3 NW 4 7 2 4 1010.8 1010.8 2.0
20/10:00pm 25.1 29.7 24.8 98 0.2 NNW 9 15 5 8 1010.5 1010.5 2.0
20/09:30pm 23.8 28.0 23.5 98 0.2 NNW 7 13 4 7 1010.9 1010.9 2.0
20/09:00pm 23.7 27.7 22.1 91 1.1 ESE 4 9 2 5 1011.6 1011.6 2.0
20/08:30pm 28.0 32.6 23.8 78 2.9 N 6 22 3 12 1011.9 1011.9 0.2
20/08:00pm 28.3 33.9 24.9 82 2.4 WNW 4 9 2 5 1010.5 1010.5 0.2
20/07:30pm 28.3 33.4 24.7 81 2.5 WNW 6 11 3 6 1010.1 1010.1 0.2
20/07:00pm 28.4 33.3 24.4 79 2.8 WNW 6 9 3 5 1009.7 1009.7 0.2
20/06:30pm 28.9 33.9 24.5 77 3.1 WNW 6 13 3 7 1009.0 1009.0 0.2
20/06:00pm 29.4 34.1 24.3 74 3.6 NW 7 15 4 8 1008.6 1008.6 0.2
20/05:30pm 29.6 34.4 24.5 74 3.6 NNW 7 13 4 7 1008.5 1008.5 0.2
20/05:00pm 30.1 34.9 24.5 72 3.9 NW 7 15 4 8 1008.7 1008.7 0.2
20/04:30pm 30.7 35.3 24.8 71 4.1 WNW 9 15 5 8 1008.5 1008.5 0.2
20/04:00pm 31.0 35.1 24.6 68 4.5 WNW 11 17 6 9 1008.5 1008.5 0.2
20/03:30pm 31.3 35.2 24.2 66 5.0 NNW 11 20 6 11 1008.7 1008.7 0.2
20/03:00pm 31.6 35.0 24.0 64 5.3 N 13 20 7 11 1009.0 1009.0 0.2
20/02:30pm 32.1 35.7 24.4 63 5.4 N 13 24 7 13 1009.3 1009.3 0.2
20/02:00pm 31.6 35.3 24.5 66 5.0 NNW 13 24 7 13 1009.9 1009.9 0.2
20/01:30pm 31.1 34.6 24.2 66 4.8 N 13 20 7 11 1010.3 1010.3 0.2
20/01:00pm 32.0 35.9 24.8 65 5.1 N 13 22 7 12 1010.8 1010.8 0.2
20/12:30pm 31.1 34.9 24.0 66 4.9 N 11 22 6 12 1011.5 1011.5 0.2
20/12:00pm 31.5 35.2 23.9 64 5.3 NNE 11 17 6 9 1011.9 1011.9 0.2
20/11:30am 31.2 35.4 24.1 66 4.9 N 9 19 5 10 1012.2 1012.2 0.0
20/11:00am 29.4 33.3 23.6 71 4.0 NE 9 15 5 8 1012.6 1012.6 0.0
20/10:30am 28.5 33.4 24.3 78 2.9 NE 6 9 3 5 1012.8 1012.8 0.0
20/10:00am 27.9 32.6 24.3 81 2.5 ENE 7 9 4 5 1013.0 1013.0 0.0
20/09:30am 27.4 33.5 24.5 84 2.0 CALM 0 4 0 2 1012.9 1012.9 0.0
20/09:00am 26.7 33.9 26.2 97 0.4 CALM 0 0 0 0 1012.5 1012.5 3.8
20/08:30am 26.1 31.8 25.9 99 0.1 ENE 7 13 4 7 1012.5 1012.5 3.8
20/08:00am 26.0 32.2 25.8 99 0.1 NE 4 7 2 4 1012.2 1012.2 3.8
20/07:30am 26.0 31.6 25.5 97 0.4 NNE 6 13 3 7 1011.9 1011.9 3.6
20/07:00am 26.6 32.6 26.1 97 0.4 N 6 17 3 9 1011.9 1011.9 2.2
20/06:30am 26.4 32.7 25.9 97 0.4 N 4 7 2 4 1011.3 1011.3 2.2
20/06:00am 26.0 32.3 25.3 96 0.5 NE 2 7 1 4 1010.8 1010.8 2.2
20/05:30am 26.1 31.5 25.1 94 0.7 NNW 6 9 3 5 1010.5 1010.5 2.2
20/05:00am 26.4 32.3 25.4 94 0.7 N 4 9 2 5 1010.5 1010.5 2.0
20/04:30am 26.6 32.0 25.2 92 1.0 NW 6 9 3 5 1010.0 1010.0 1.0
20/04:00am 27.3 33.6 25.3 89 1.4 WNW 2 9 1 5 1010.0 1010.0 0.8
20/03:30am 27.1 33.2 25.7 92 1.0 WNW 4 7 2 4 1010.1 1010.1 0.8
20/03:00am 26.8 32.9 25.6 93 0.8 WNW 4 9 2 5 1010.2 1010.2 0.8
20/02:30am 26.9 32.9 25.5 92 1.0 WNW 4 7 2 4 1010.3 1010.3 0.6
20/02:00am 27.6 33.0 25.2 87 1.7 W 6 9 3 5 1010.4 1010.4 0.4
20/01:30am 27.6 33.4 25.2 87 1.7 W 4 9 2 5 1010.7 1010.7 0.4
20/01:00am 27.2 32.8 24.8 87 1.7 WNW 4 7 2 4 1011.0 1011.0 0.4
20/12:30am 27.4 33.3 24.7 85 1.9 WNW 2 7 1 4 1011.2 1011.2 0.4
20/12:00am 27.6 33.1 24.6 84 2.1 W 4 7 2 4 1011.4 1011.4 0.4
 
Date/Time
CST
Temp
°C
App
Temp
°C
Dew
Point
°C
Rel
Hum
%
Delta-T
°C
Wind Press
QNH
hPa
Press
MSL
hPa
Rain since
9am
mm
Dir  Spd
km/h
Gust
km/h
Spd
kts
Gust
kts
19/11:30pm 27.8 33.4 24.8 84 2.1 W 4 9 2 5 1011.6 1011.6 0.4

Other formats

Comma delimited format used in spreadsheet applications
http://www.bom.gov.au/fwo/IDD60801/IDD60801.94116.axf

JavaScript Object Notation format (JSON) in row-major order
http://www.bom.gov.au/fwo/IDD60801/IDD60801.94116.json

Data quality

Most of these data are generated automatically and are frequently updated. Quality checks on data are not normally performed. It is possible for incorrect values to appear. Refer to information at About Latest Weather Observations and please check the disclaimer before using these data.